Time,TemperatureF,DewpointF,PressureIn,WindDirection,WindDirectionDegrees,WindSpeedMPH,WindSpeedGustMPH,Humidity,HourlyPrecipIn,Conditions,Clouds,dailyrainin,SoftwareType,DateUTC
2013-02-14 00:00:00,46.6,33.0,30.10,ENE,67,0.0,1.0,59,0.00,,,0.00,WeatherTracker,2013-02-14 06:00:00,
2013-02-14 00:05:00,46.7,33.1,30.10,ENE,66,0.0,1.0,59,0.00,,,0.00,WeatherTracker,2013-02-14 06:05:00,
2013-02-14 00:10:00,46.4,32.9,30.10,ENE,66,0.0,1.0,59,0.00,,,0.00,WeatherTracker,2013-02-14 06:10:00,
2013-02-14 00:15:00,46.2,33.1,30.10,ENE,66,0.0,0.0,60,0.00,,,0.00,WeatherTracker,2013-02-14 06:15:00,
2013-02-14 00:20:00,45.4,33.2,30.11,ENE,66,0.0,0.0,62,0.00,,,0.00,WeatherTracker,2013-02-14 06:20:00,
2013-02-14 00:25:00,44.4,32.6,30.10,ENE,64,0.0,0.0,63,0.00,,,0.00,WeatherTracker,2013-02-14 06:25:00,
2013-02-14 00:30:00,43.7,32.3,30.10,ENE,64,0.0,1.0,64,0.00,,,0.00,WeatherTracker,2013-02-14 06:30:00,
2013-02-14 00:35:00,43.4,32.4,30.11,ENE,60,0.0,1.0,65,0.00,,,0.00,WeatherTracker,2013-02-14 06:35:00,
2013-02-14 00:40:00,43.2,32.6,30.11,ENE,63,0.0,1.0,66,0.00,,,0.00,WeatherTracker,2013-02-14 06:40:00,
2013-02-14 00:45:00,42.9,32.7,30.11,ENE,64,0.0,1.0,67,0.00,,,0.00,WeatherTracker,2013-02-14 06:45:00,
2013-02-14 00:50:00,42.7,32.9,30.10,ENE,64,0.0,1.0,68,0.00,,,0.00,WeatherTracker,2013-02-14 06:50:00,
2013-02-14 00:55:00,42.6,33.2,30.10,ENE,64,0.0,0.0,69,0.00,,,0.00,WeatherTracker,2013-02-14 06:55:00,
2013-02-14 01:00:00,42.8,33.7,30.10,ENE,64,0.0,0.0,70,0.00,,,0.00,WeatherTracker,2013-02-14 07:00:00,
2013-02-14 01:05:00,43.2,34.1,30.10,ENE,63,0.0,0.0,70,0.00,,,0.00,WeatherTracker,2013-02-14 07:05:00,
2013-02-14 01:10:00,43.3,33.8,30.10,ENE,64,0.0,1.0,69,0.00,,,0.00,WeatherTracker,2013-02-14 07:10:00,
2013-02-14 01:15:00,42.8,33.3,30.10,ENE,64,0.0,1.0,69,0.00,,,0.00,WeatherTracker,2013-02-14 07:15:00,
2013-02-14 01:20:00,42.5,33.8,30.10,ENE,64,0.0,0.0,71,0.00,,,0.00,WeatherTracker,2013-02-14 07:20:00,
2013-02-14 01:25:00,42.4,34.0,30.11,ENE,64,0.0,0.0,72,0.00,,,0.00,WeatherTracker,2013-02-14 07:25:00,
2013-02-14 01:30:00,42.3,34.3,30.11,ENE,64,0.0,1.0,73,0.00,,,0.00,WeatherTracker,2013-02-14 07:30:00,
2013-02-14 01:35:00,42.0,33.6,30.11,ENE,64,0.0,1.0,72,0.00,,,0.00,WeatherTracker,2013-02-14 07:35:00,
2013-02-14 01:40:00,41.7,33.7,30.11,ENE,64,0.0,0.0,73,0.00,,,0.00,WeatherTracker,2013-02-14 07:40:00,
2013-02-14 01:45:00,41.8,33.8,30.11,ENE,64,0.0,0.0,73,0.00,,,0.00,WeatherTracker,2013-02-14 07:45:00,
2013-02-14 01:50:00,41.8,33.8,30.11,ENE,64,0.0,0.0,73,0.00,,,0.00,WeatherTracker,2013-02-14 07:50:00,
2013-02-14 01:55:00,41.7,33.7,30.11,ENE,64,0.0,0.0,73,0.00,,,0.00,WeatherTracker,2013-02-14 07:55:00,
2013-02-14 02:00:00,41.6,33.9,30.11,ENE,64,0.0,0.0,74,0.00,,,0.00,WeatherTracker,2013-02-14 08:00:00,
2013-02-14 02:05:00,41.5,33.8,30.10,ENE,64,0.0,0.0,74,0.00,,,0.00,WeatherTracker,2013-02-14 08:05:00,
2013-02-14 02:10:00,41.4,34.1,30.10,ENE,64,0.0,0.0,75,0.00,,,0.00,WeatherTracker,2013-02-14 08:10:00,
2013-02-14 02:15:00,41.1,33.8,30.11,ENE,63,0.0,0.0,75,0.00,,,0.00,WeatherTracker,2013-02-14 08:15:00,
2013-02-14 02:20:00,40.6,33.6,30.11,ENE,64,0.0,0.0,76,0.00,,,0.00,WeatherTracker,2013-02-14 08:20:00,
2013-02-14 02:25:00,40.1,33.5,30.11,ENE,64,0.0,0.0,77,0.00,,,0.00,WeatherTracker,2013-02-14 08:25:00,
2013-02-14 02:30:00,39.7,33.4,30.11,ENE,64,0.0,0.0,78,0.00,,,0.00,WeatherTracker,2013-02-14 08:30:00,
2013-02-14 02:35:00,39.3,33.3,30.11,ENE,64,0.0,0.0,79,0.00,,,0.00,WeatherTracker,2013-02-14 08:35:00,
2013-02-14 02:40:00,39.0,33.4,30.10,ENE,64,0.0,0.0,80,0.00,,,0.00,WeatherTracker,2013-02-14 08:40:00,
2013-02-14 02:45:00,39.0,33.7,30.11,ENE,64,0.0,0.0,81,0.00,,,0.00,WeatherTracker,2013-02-14 08:45:00,
2013-02-14 02:50:00,38.9,33.6,30.11,ENE,64,0.0,0.0,81,0.00,,,0.00,WeatherTracker,2013-02-14 08:50:00,
2013-02-14 02:56:00,39.1,34.1,30.10,ENE,64,0.0,0.0,82,0.00,,,0.00,WeatherTracker,2013-02-14 08:56:00,
2013-02-14 03:01:00,39.1,34.1,30.10,ENE,64,0.0,0.0,82,0.00,,,0.00,WeatherTracker,2013-02-14 09:01:00,
2013-02-14 03:06:00,39.2,34.2,30.10,ENE,64,0.0,0.0,82,0.00,,,0.00,WeatherTracker,2013-02-14 09:06:00,
2013-02-14 03:11:00,39.5,34.5,30.10,ENE,64,0.0,0.0,82,0.00,,,0.00,WeatherTracker,2013-02-14 09:11:00,
2013-02-14 03:16:00,39.5,34.2,30.10,ENE,64,0.0,0.0,81,0.00,,,0.00,WeatherTracker,2013-02-14 09:16:00,
2013-02-14 03:21:00,39.3,34.0,30.10,ENE,64,0.0,0.0,81,0.00,,,0.00,WeatherTracker,2013-02-14 09:21:00,
2013-02-14 03:26:00,39.3,34.0,30.10,ENE,64,0.0,0.0,81,0.00,,,0.00,WeatherTracker,2013-02-14 09:26:00,
2013-02-14 03:31:00,38.9,33.6,30.10,ENE,64,0.0,0.0,81,0.00,,,0.00,WeatherTracker,2013-02-14 09:31:00,
2013-02-14 03:36:00,38.4,32.8,30.10,ENE,64,0.0,0.0,80,0.00,,,0.00,WeatherTracker,2013-02-14 09:36:00,
2013-02-14 03:41:00,38.1,32.5,30.10,ENE,64,0.0,1.0,80,0.00,,,0.00,WeatherTracker,2013-02-14 09:41:00,
2013-02-14 03:46:00,37.9,32.0,30.10,ENE,66,0.0,1.0,79,0.00,,,0.00,WeatherTracker,2013-02-14 09:46:00,
2013-02-14 03:51:00,37.8,32.2,30.10,ENE,67,0.0,1.0,80,0.00,,,0.00,WeatherTracker,2013-02-14 09:51:00,
2013-02-14 03:56:00,37.7,32.1,30.10,ENE,67,0.0,0.0,80,0.00,,,0.00,WeatherTracker,2013-02-14 09:56:00,
2013-02-14 04:01:00,37.6,32.0,30.10,ENE,66,0.0,0.0,80,0.00,,,0.00,WeatherTracker,2013-02-14 10:01:00,
2013-02-14 04:06:00,37.4,31.8,30.10,ENE,66,0.0,0.0,80,0.00,,,0.00,WeatherTracker,2013-02-14 10:06:00,
2013-02-14 04:11:00,37.2,31.9,30.09,ENE,67,0.0,0.0,81,0.00,,,0.00,WeatherTracker,2013-02-14 10:11:00,
2013-02-14 04:16:00,36.9,31.6,30.09,ENE,66,0.0,0.0,81,0.00,,,0.00,WeatherTracker,2013-02-14 10:16:00,
2013-02-14 04:21:00,36.9,31.9,30.09,ENE,66,0.0,0.0,82,0.00,,,0.00,WeatherTracker,2013-02-14 10:21:00,
2013-02-14 04:26:00,37.1,32.4,30.10,ENE,67,0.0,0.0,83,0.00,,,0.00,WeatherTracker,2013-02-14 10:26:00,
2013-02-14 04:31:00,37.1,32.4,30.10,ENE,67,0.0,0.0,83,0.00,,,0.00,WeatherTracker,2013-02-14 10:31:00,
2013-02-14 04:36:00,36.9,31.9,30.10,ENE,66,0.0,0.0,82,0.00,,,0.00,WeatherTracker,2013-02-14 10:36:00,
2013-02-14 04:41:00,36.6,31.6,30.10,ENE,67,0.0,0.0,82,0.00,,,0.00,WeatherTracker,2013-02-14 10:41:00,
2013-02-14 04:46:00,36.4,31.7,30.10,ENE,66,0.0,1.0,83,0.00,,,0.00,WeatherTracker,2013-02-14 10:46:00,
2013-02-14 04:51:00,36.4,31.7,30.09,ENE,66,0.0,1.0,83,0.00,,,0.00,WeatherTracker,2013-02-14 10:51:00,
2013-02-14 04:56:00,36.3,31.6,30.10,ENE,67,0.0,1.0,83,0.00,,,0.00,WeatherTracker,2013-02-14 10:56:00,
2013-02-14 05:01:00,36.2,31.5,30.10,ENE,64,0.0,1.0,83,0.00,,,0.00,WeatherTracker,2013-02-14 11:01:00,
2013-02-14 05:06:00,36.2,31.5,30.10,NE,54,1.0,1.0,83,0.00,,,0.00,WeatherTracker,2013-02-14 11:06:00,
2013-02-14 05:11:00,36.1,31.4,30.10,East,79,0.0,1.0,83,0.00,,,0.00,WeatherTracker,2013-02-14 11:11:00,
2013-02-14 05:16:00,36.1,31.4,30.10,ENE,60,0.0,1.0,83,0.00,,,0.00,WeatherTracker,2013-02-14 11:16:00,
2013-02-14 05:21:00,36.1,31.4,30.10,ENE,59,0.0,1.0,83,0.00,,,0.00,WeatherTracker,2013-02-14 11:21:00,
2013-02-14 05:26:00,36.1,31.7,30.10,ENE,68,0.0,1.0,84,0.00,,,0.00,WeatherTracker,2013-02-14 11:26:00,
2013-02-14 05:31:00,36.3,31.9,30.10,ENE,68,0.0,1.0,84,0.00,,,0.00,WeatherTracker,2013-02-14 11:31:00,
2013-02-14 05:36:00,36.4,32.0,30.10,ENE,68,0.0,1.0,84,0.00,,,0.00,WeatherTracker,2013-02-14 11:36:00,
2013-02-14 05:41:00,36.2,31.8,30.10,ENE,68,0.0,1.0,84,0.00,,,0.00,WeatherTracker,2013-02-14 11:41:00,
2013-02-14 05:46:00,36.0,31.6,30.11,ENE,68,0.0,1.0,84,0.00,,,0.00,WeatherTracker,2013-02-14 11:46:00,
2013-02-14 05:51:00,36.0,31.6,30.11,ENE,72,0.0,1.0,84,0.00,,,0.00,WeatherTracker,2013-02-14 11:51:00,
2013-02-14 05:56:00,35.8,31.4,30.11,ENE,58,0.0,1.0,84,0.00,,,0.00,WeatherTracker,2013-02-14 11:56:00,
2013-02-14 06:01:00,35.7,31.3,30.11,ENE,57,0.0,1.0,84,0.00,,,0.00,WeatherTracker,2013-02-14 12:01:00,
2013-02-14 06:06:00,35.6,31.3,30.11,ENE,59,0.0,0.0,84,0.00,,,0.00,WeatherTracker,2013-02-14 12:06:00,
2013-02-14 06:11:00,35.6,31.3,30.11,ENE,63,0.0,1.0,84,0.00,,,0.00,WeatherTracker,2013-02-14 12:11:00,
2013-02-14 06:16:00,35.5,31.2,30.11,NE,53,0.0,1.0,84,0.00,,,0.00,WeatherTracker,2013-02-14 12:16:00,
2013-02-14 06:21:00,35.4,31.1,30.11,ENE,59,0.0,1.0,84,0.00,,,0.00,WeatherTracker,2013-02-14 12:21:00,
2013-02-14 06:26:00,35.3,31.0,30.11,ENE,67,1.0,2.0,84,0.00,,,0.00,WeatherTracker,2013-02-14 12:26:00,
2013-02-14 06:31:00,35.2,31.2,30.11,ENE,58,1.0,2.0,85,0.00,,,0.00,WeatherTracker,2013-02-14 12:31:00,
2013-02-14 06:36:00,35.1,31.1,30.11,ENE,63,1.0,2.0,85,0.00,,,0.00,WeatherTracker,2013-02-14 12:36:00,
2013-02-14 06:41:00,35.1,31.1,30.11,ENE,57,0.0,2.0,85,0.00,,,0.00,WeatherTracker,2013-02-14 12:41:00,
2013-02-14 06:46:00,35.0,31.0,30.12,ENE,59,0.0,1.0,85,0.00,,,0.00,WeatherTracker,2013-02-14 12:46:00,
2013-02-14 06:51:00,35.0,31.2,30.12,ENE,78,0.0,1.0,86,0.00,,,0.00,WeatherTracker,2013-02-14 12:51:00,
2013-02-14 06:56:00,35.0,31.2,30.12,ENE,75,0.0,1.0,86,0.00,,,0.00,WeatherTracker,2013-02-14 12:56:00,
2013-02-14 07:01:00,35.0,31.2,30.12,ENE,75,0.0,0.0,86,0.00,,,0.00,WeatherTracker,2013-02-14 13:01:00,
2013-02-14 07:06:00,34.8,31.0,30.12,ENE,74,0.0,0.0,86,0.00,,,0.00,WeatherTracker,2013-02-14 13:06:00,
2013-02-14 07:11:00,34.7,30.9,30.12,ENE,65,0.0,0.0,86,0.00,,,0.00,WeatherTracker,2013-02-14 13:11:00,
2013-02-14 07:16:00,34.7,30.9,30.12,ENE,65,0.0,0.0,86,0.00,,,0.00,WeatherTracker,2013-02-14 13:16:00,
2013-02-14 07:21:00,34.7,30.9,30.12,ENE,65,0.0,0.0,86,0.00,,,0.00,WeatherTracker,2013-02-14 13:21:00,
2013-02-14 07:26:00,34.7,31.2,30.12,ENE,65,0.0,0.0,87,0.00,,,0.00,WeatherTracker,2013-02-14 13:26:00,
2013-02-14 07:31:00,34.7,31.2,30.12,ENE,65,0.0,0.0,87,0.00,,,0.00,WeatherTracker,2013-02-14 13:31:00,
2013-02-14 07:36:00,34.7,31.2,30.12,ENE,63,0.0,0.0,87,0.00,,,0.00,WeatherTracker,2013-02-14 13:36:00,
2013-02-14 07:41:00,34.8,31.3,30.12,ENE,63,0.0,0.0,87,0.00,,,0.00,WeatherTracker,2013-02-14 13:41:00,
2013-02-14 07:46:00,35.1,31.6,30.13,ENE,64,0.0,1.0,87,0.00,,,0.00,WeatherTracker,2013-02-14 13:46:00,
2013-02-14 07:51:00,35.4,31.9,30.13,ENE,64,0.0,1.0,87,0.00,,,0.00,WeatherTracker,2013-02-14 13:51:00,
2013-02-14 07:56:00,36.3,32.8,30.13,ENE,69,0.0,1.0,87,0.00,,,0.00,WeatherTracker,2013-02-14 13:56:00,
2013-02-14 08:01:00,37.1,33.0,30.13,ENE,70,0.0,1.0,85,0.00,,,0.00,WeatherTracker,2013-02-14 14:01:00,
2013-02-14 08:06:00,37.7,33.3,30.13,ENE,70,0.0,1.0,84,0.00,,,0.00,WeatherTracker,2013-02-14 14:06:00,
2013-02-14 08:11:00,38.0,33.6,30.13,ENE,70,0.0,0.0,84,0.00,,,0.00,WeatherTracker,2013-02-14 14:11:00,
2013-02-14 08:16:00,38.5,33.8,30.13,ENE,70,0.0,0.0,83,0.00,,,0.00,WeatherTracker,2013-02-14 14:16:00,
2013-02-14 08:21:00,39.4,34.4,30.14,ENE,66,0.0,1.0,82,0.00,,,0.00,WeatherTracker,2013-02-14 14:21:00,
2013-02-14 08:26:00,40.5,35.1,30.14,ENE,66,0.0,1.0,81,0.00,,,0.00,WeatherTracker,2013-02-14 14:26:00,
2013-02-14 08:31:00,41.9,36.2,30.14,ENE,66,0.0,0.0,80,0.00,,,0.00,WeatherTracker,2013-02-14 14:31:00,
2013-02-14 08:36:00,44.1,37.4,30.14,ENE,66,0.0,0.0,77,0.00,,,0.00,WeatherTracker,2013-02-14 14:36:00,
2013-02-14 08:41:00,46.0,37.8,30.14,ENE,66,0.0,0.0,73,0.00,,,0.00,WeatherTracker,2013-02-14 14:41:00,
2013-02-14 08:46:00,48.0,38.3,30.14,ENE,66,0.0,0.0,69,0.00,,,0.00,WeatherTracker,2013-02-14 14:46:00,
2013-02-14 08:51:00,49.2,39.1,30.14,ENE,66,0.0,0.0,68,0.00,,,0.00,WeatherTracker,2013-02-14 14:51:00,
2013-02-14 08:56:00,50.6,39.3,30.15,ENE,66,0.0,0.0,65,0.00,,,0.00,WeatherTracker,2013-02-14 14:56:00,
2013-02-14 09:01:00,51.4,38.8,30.15,ENE,66,0.0,0.0,62,0.00,,,0.00,WeatherTracker,2013-02-14 15:01:00,
2013-02-14 09:06:00,50.5,38.4,30.15,ENE,66,0.0,0.0,63,0.00,,,0.00,WeatherTracker,2013-02-14 15:06:00,
2013-02-14 09:11:00,50.1,38.4,30.15,West,262,0.0,2.0,64,0.00,,,0.00,WeatherTracker,2013-02-14 15:11:00,
2013-02-14 09:16:00,50.2,38.5,30.15,SW,228,0.0,2.0,64,0.00,,,0.00,WeatherTracker,2013-02-14 15:16:00,
2013-02-14 09:21:00,50.5,39.2,30.15,WSW,241,0.0,2.0,65,0.00,,,0.00,WeatherTracker,2013-02-14 15:21:00,
2013-02-14 09:26:00,50.9,39.6,30.15,WSW,242,0.0,2.0,65,0.00,,,0.00,WeatherTracker,2013-02-14 15:26:00,
2013-02-14 09:31:00,51.5,39.3,30.15,WSW,248,0.0,3.0,63,0.00,,,0.00,WeatherTracker,2013-02-14 15:31:00,
2013-02-14 09:36:00,52.2,39.2,30.15,WSW,246,0.0,3.0,61,0.00,,,0.00,WeatherTracker,2013-02-14 15:36:00,
2013-02-14 09:41:00,52.6,39.5,30.15,West,273,0.0,2.0,61,0.00,,,0.00,WeatherTracker,2013-02-14 15:41:00,
2013-02-14 09:46:00,53.3,39.3,30.15,WSW,246,2.0,3.0,59,0.00,,,0.00,WeatherTracker,2013-02-14 15:46:00,
2013-02-14 09:51:00,53.7,39.7,30.15,SW,233,2.0,3.0,59,0.00,,,0.00,WeatherTracker,2013-02-14 15:51:00,
2013-02-14 09:56:00,53.9,39.9,30.15,West,259,0.0,4.0,59,0.00,,,0.00,WeatherTracker,2013-02-14 15:56:00,
2013-02-14 10:01:00,54.4,39.5,30.15,SW,219,0.0,5.0,57,0.00,,,0.00,WeatherTracker,2013-02-14 16:01:00,
2013-02-14 10:06:00,55.2,40.2,30.15,WSW,238,0.0,5.0,57,0.00,,,0.00,WeatherTracker,2013-02-14 16:06:00,
2013-02-14 10:11:00,55.8,40.8,30.15,SW,224,0.0,2.0,57,0.00,,,0.00,WeatherTracker,2013-02-14 16:11:00,
2013-02-14 10:16:00,56.1,39.7,30.15,SW,228,2.0,3.0,54,0.00,,,0.00,WeatherTracker,2013-02-14 16:16:00,
2013-02-14 10:21:00,56.4,40.0,30.15,WNW,297,3.0,4.0,54,0.00,,,0.00,WeatherTracker,2013-02-14 16:21:00,
2013-02-14 10:26:00,56.9,39.5,30.15,WSW,238,2.0,4.0,52,0.00,,,0.00,WeatherTracker,2013-02-14 16:26:00,
2013-02-14 10:31:00,57.2,39.7,30.15,SSW,211,1.0,4.0,52,0.00,,,0.00,WeatherTracker,2013-02-14 16:31:00,
2013-02-14 10:36:00,57.3,39.8,30.14,NW,312,2.0,6.0,52,0.00,,,0.00,WeatherTracker,2013-02-14 16:36:00,
2013-02-14 10:41:00,57.6,39.6,30.15,SW,233,1.0,6.0,51,0.00,,,0.00,WeatherTracker,2013-02-14 16:41:00,
2013-02-14 10:46:00,58.0,39.5,30.15,WSW,240,1.0,6.0,50,0.00,,,0.00,WeatherTracker,2013-02-14 16:46:00,
2013-02-14 10:51:00,58.2,40.2,30.14,WSW,242,1.0,6.0,51,0.00,,,0.00,WeatherTracker,2013-02-14 16:51:00,
2013-02-14 10:56:00,58.7,40.6,30.14,SW,218,1.0,5.0,51,0.00,,,0.00,WeatherTracker,2013-02-14 16:56:00,
2013-02-14 11:01:00,59.0,39.3,30.14,SW,233,2.0,5.0,48,0.00,,,0.00,WeatherTracker,2013-02-14 17:01:00,
2013-02-14 11:06:00,58.8,39.7,30.14,SW,219,2.0,5.0,49,0.00,,,0.00,WeatherTracker,2013-02-14 17:06:00,
2013-02-14 11:11:00,59.2,40.0,30.14,SW,217,2.0,6.0,49,0.00,,,0.00,WeatherTracker,2013-02-14 17:11:00,
2013-02-14 11:16:00,59.6,39.3,30.14,WSW,249,5.0,6.0,47,0.00,,,0.00,WeatherTracker,2013-02-14 17:16:00,
2013-02-14 11:21:00,59.5,39.3,30.14,WSW,242,4.0,6.0,47,0.00,,,0.00,WeatherTracker,2013-02-14 17:21:00,
2013-02-14 11:26:00,60.0,39.7,30.14,SW,231,1.0,7.0,47,0.00,,,0.00,WeatherTracker,2013-02-14 17:26:00,
2013-02-14 11:31:00,60.7,40.3,30.14,WSW,248,0.0,7.0,47,0.00,,,0.00,WeatherTracker,2013-02-14 17:31:00,
2013-02-14 11:36:00,61.1,40.7,30.14,WSW,250,2.0,6.0,47,0.00,,,0.00,WeatherTracker,2013-02-14 17:36:00,
2013-02-14 11:41:00,60.6,39.7,30.14,West,269,2.0,7.0,46,0.00,,,0.00,WeatherTracker,2013-02-14 17:41:00,
2013-02-14 11:46:00,61.0,40.1,30.14,South,183,0.0,7.0,46,0.00,,,0.00,WeatherTracker,2013-02-14 17:46:00,
2013-02-14 11:51:00,61.3,38.6,30.13,West,266,0.0,7.0,43,0.00,,,0.00,WeatherTracker,2013-02-14 17:51:00,
2013-02-14 11:56:00,61.7,39.0,30.13,SE,134,0.0,7.0,43,0.00,,,0.00,WeatherTracker,2013-02-14 17:56:00,
2013-02-14 12:01:00,61.4,38.1,30.13,SSW,205,0.0,8.0,42,0.00,,,0.00,WeatherTracker,2013-02-14 18:01:00,
2013-02-14 12:06:00,61.3,39.2,30.13,South,187,3.0,8.0,44,0.00,,,0.00,WeatherTracker,2013-02-14 18:06:00,
2013-02-14 12:11:00,62.1,38.7,30.12,WSW,245,1.0,8.0,42,0.00,,,0.00,WeatherTracker,2013-02-14 18:11:00,
2013-02-14 12:16:00,62.3,39.5,30.12,NE,53,0.0,10.0,43,0.00,,,0.00,WeatherTracker,2013-02-14 18:16:00,
2013-02-14 12:21:00,62.8,39.4,30.12,SW,228,1.0,10.0,42,0.00,,,0.00,WeatherTracker,2013-02-14 18:21:00,
2013-02-14 12:26:00,63.0,39.5,30.12,WSW,246,3.0,6.0,42,0.00,,,0.00,WeatherTracker,2013-02-14 18:26:00,
2013-02-14 12:31:00,63.3,40.4,30.12,WSW,249,3.0,6.0,43,0.00,,,0.00,WeatherTracker,2013-02-14 18:31:00,
2013-02-14 12:36:00,63.8,39.0,30.11,WSW,245,1.0,7.0,40,0.00,,,0.00,WeatherTracker,2013-02-14 18:36:00,
2013-02-14 12:41:00,64.2,39.4,30.11,WSW,243,0.0,7.0,40,0.00,,,0.00,WeatherTracker,2013-02-14 18:41:00,
2013-02-14 12:46:00,65.0,40.7,30.11,WNW,290,1.0,5.0,41,0.00,,,0.00,WeatherTracker,2013-02-14 18:46:00,
2013-02-14 12:51:00,65.1,40.8,30.10,SW,233,1.0,7.0,41,0.00,,,0.00,WeatherTracker,2013-02-14 18:51:00,
2013-02-14 12:56:00,65.2,40.3,30.10,SW,225,4.0,7.0,40,0.00,,,0.00,WeatherTracker,2013-02-14 18:56:00,
2013-02-14 13:01:00,65.1,38.9,30.10,WSW,244,1.0,8.0,38,0.00,,,0.00,WeatherTracker,2013-02-14 19:01:00,
2013-02-14 13:06:00,64.9,40.0,30.09,West,266,6.0,8.0,40,0.00,,,0.00,WeatherTracker,2013-02-14 19:06:00,
2013-02-14 13:11:00,64.7,39.8,30.09,WSW,242,1.0,8.0,40,0.00,,,0.00,WeatherTracker,2013-02-14 19:11:00,
2013-02-14 13:16:00,65.1,39.5,30.09,SW,228,0.0,8.0,39,0.00,,,0.00,WeatherTracker,2013-02-14 19:16:00,
2013-02-14 13:21:00,65.5,39.2,30.08,West,260,4.0,8.0,38,0.00,,,0.00,WeatherTracker,2013-02-14 19:21:00,
2013-02-14 13:26:00,65.9,40.2,30.07,SW,233,0.0,8.0,39,0.00,,,0.00,WeatherTracker,2013-02-14 19:26:00,
2013-02-14 13:31:00,66.4,39.3,30.07,SW,218,0.0,6.0,37,0.00,,,0.00,WeatherTracker,2013-02-14 19:31:00,
2013-02-14 13:36:00,66.7,39.6,30.07,West,278,3.0,10.0,37,0.00,,,0.00,WeatherTracker,2013-02-14 19:36:00,
2013-02-14 13:41:00,66.8,40.4,30.06,West,270,1.0,10.0,38,0.00,,,0.00,WeatherTracker,2013-02-14 19:41:00,
2013-02-14 13:46:00,66.7,38.9,30.06,SSE,149,3.0,9.0,36,0.00,,,0.00,WeatherTracker,2013-02-14 19:46:00,
2013-02-14 13:51:00,66.7,39.6,30.05,SSE,152,1.0,9.0,37,0.00,,,0.00,WeatherTracker,2013-02-14 19:51:00,
2013-02-14 13:56:00,67.1,39.2,30.05,SE,127,1.0,8.0,36,0.00,,,0.00,WeatherTracker,2013-02-14 19:56:00,
2013-02-14 14:01:00,67.5,39.6,30.05,West,259,0.0,8.0,36,0.00,,,0.00,WeatherTracker,2013-02-14 20:01:00,
2013-02-14 14:06:00,68.1,38.7,30.04,SSW,198,0.0,5.0,34,0.00,,,0.00,WeatherTracker,2013-02-14 20:06:00,
2013-02-14 14:11:00,68.4,39.7,30.04,WSW,257,1.0,4.0,35,0.00,,,0.00,WeatherTracker,2013-02-14 20:11:00,
2013-02-14 14:16:00,68.1,38.7,30.04,SW,236,2.0,7.0,34,0.00,,,0.00,WeatherTracker,2013-02-14 20:16:00,
2013-02-14 14:21:00,67.7,39.1,30.04,SSW,208,4.0,7.0,35,0.00,,,0.00,WeatherTracker,2013-02-14 20:21:00,
2013-02-14 14:26:00,68.2,38.0,30.04,SE,132,4.0,6.0,33,0.00,,,0.00,WeatherTracker,2013-02-14 20:26:00,
2013-02-14 14:31:00,68.3,38.8,30.03,South,190,2.0,6.0,34,0.00,,,0.00,WeatherTracker,2013-02-14 20:31:00,
2013-02-14 14:36:00,68.3,38.8,30.03,WSW,249,1.0,5.0,34,0.00,,,0.00,WeatherTracker,2013-02-14 20:36:00,
2013-02-14 14:41:00,68.3,38.8,30.02,WSW,249,0.0,3.0,34,0.00,,,0.00,WeatherTracker,2013-02-14 20:41:00,
2013-02-14 14:46:00,68.8,39.3,30.02,South,172,1.0,5.0,34,0.00,,,0.00,WeatherTracker,2013-02-14 20:46:00,
2013-02-14 14:51:00,68.9,39.4,30.02,WSW,243,0.0,8.0,34,0.00,,,0.00,WeatherTracker,2013-02-14 20:51:00,
2013-02-14 14:56:00,68.8,38.5,30.02,ESE,115,1.0,8.0,33,0.00,,,0.00,WeatherTracker,2013-02-14 20:56:00,
2013-02-14 15:01:00,69.0,39.5,30.02,WNW,298,1.0,5.0,34,0.00,,,0.00,WeatherTracker,2013-02-14 21:01:00,
2013-02-14 15:06:00,68.8,37.7,30.01,WSW,242,4.0,8.0,32,0.00,,,0.00,WeatherTracker,2013-02-14 21:06:00,
2013-02-14 15:11:00,68.6,39.1,30.02,WSW,242,1.0,8.0,34,0.00,,,0.00,WeatherTracker,2013-02-14 21:11:00,
2013-02-14 15:16:00,69.2,38.9,30.01,East,95,0.0,6.0,33,0.00,,,0.00,WeatherTracker,2013-02-14 21:16:00,
2013-02-14 15:21:00,69.6,40.0,30.01,WSW,240,0.0,5.0,34,0.00,,,0.00,WeatherTracker,2013-02-14 21:21:00,
2013-02-14 15:26:00,69.9,39.5,30.01,West,276,0.0,6.0,33,0.00,,,0.00,WeatherTracker,2013-02-14 21:26:00,
2013-02-14 15:31:00,69.9,39.5,30.01,SSE,159,0.0,6.0,33,0.00,,,0.00,WeatherTracker,2013-02-14 21:31:00,
2013-02-14 15:36:00,70.1,39.7,30.01,WSW,239,2.0,5.0,33,0.00,,,0.00,WeatherTracker,2013-02-14 21:36:00,
2013-02-14 15:41:00,69.7,38.5,30.00,WSW,257,0.0,7.0,32,0.00,,,0.00,WeatherTracker,2013-02-14 21:41:00,
2013-02-14 15:46:00,69.8,39.4,30.00,SSW,212,1.0,7.0,33,0.00,,,0.00,WeatherTracker,2013-02-14 21:46:00,
2013-02-14 15:51:00,70.0,39.6,30.00,WNW,290,2.0,7.0,33,0.00,,,0.00,WeatherTracker,2013-02-14 21:51:00,
2013-02-14 15:56:00,70.0,39.6,30.00,ENE,63,0.0,7.0,33,0.00,,,0.00,WeatherTracker,2013-02-14 21:56:00,
2013-02-14 16:01:00,69.8,39.4,30.00,SSE,164,0.0,6.0,33,0.00,,,0.00,WeatherTracker,2013-02-14 22:01:00,
2013-02-14 16:06:00,69.9,38.7,30.01,WSW,252,0.0,5.0,32,0.00,,,0.00,WeatherTracker,2013-02-14 22:06:00,
2013-02-14 16:11:00,69.7,38.5,30.01,SE,135,1.0,6.0,32,0.00,,,0.00,WeatherTracker,2013-02-14 22:11:00,
2013-02-14 16:16:00,69.7,38.5,30.01,South,172,2.0,6.0,32,0.00,,,0.00,WeatherTracker,2013-02-14 22:16:00,
2013-02-14 16:21:00,69.8,39.4,30.01,ESE,108,0.0,9.0,33,0.00,,,0.00,WeatherTracker,2013-02-14 22:21:00,
2013-02-14 16:26:00,69.8,39.4,30.01,SW,224,1.0,9.0,33,0.00,,,0.00,WeatherTracker,2013-02-14 22:26:00,
2013-02-14 16:31:00,69.7,38.5,30.01,SW,229,1.0,5.0,32,0.00,,,0.00,WeatherTracker,2013-02-14 22:31:00,
2013-02-14 16:36:00,69.4,39.0,30.01,SSE,159,1.0,8.0,33,0.00,,,0.00,WeatherTracker,2013-02-14 22:36:00,
2013-02-14 16:41:00,69.4,39.0,30.01,SSE,166,0.0,8.0,33,0.00,,,0.00,WeatherTracker,2013-02-14 22:41:00,
2013-02-14 16:46:00,69.4,39.8,30.01,South,172,0.0,7.0,34,0.00,,,0.00,WeatherTracker,2013-02-14 22:46:00,
2013-02-14 16:51:00,69.8,39.4,30.01,South,189,0.0,7.0,33,0.00,,,0.00,WeatherTracker,2013-02-14 22:51:00,
2013-02-14 16:56:00,69.6,39.2,30.01,SW,232,2.0,7.0,33,0.00,,,0.00,WeatherTracker,2013-02-14 22:56:00,
2013-02-14 17:01:00,69.5,39.1,30.01,WSW,255,2.0,7.0,33,0.00,,,0.00,WeatherTracker,2013-02-14 23:01:00,
2013-02-14 17:06:00,69.7,39.3,30.01,West,263,3.0,4.0,33,0.00,,,0.00,WeatherTracker,2013-02-14 23:06:00,
2013-02-14 17:11:00,69.2,38.9,30.01,WSW,254,0.0,4.0,33,0.00,,,0.00,WeatherTracker,2013-02-14 23:11:00,
2013-02-14 17:16:00,68.9,39.4,30.01,SSW,207,0.0,4.0,34,0.00,,,0.00,WeatherTracker,2013-02-14 23:16:00,
2013-02-14 17:21:00,68.8,39.3,30.00,West,274,1.0,9.0,34,0.00,,,0.00,WeatherTracker,2013-02-14 23:21:00,
2013-02-14 17:26:00,68.6,39.8,30.01,ESE,121,0.0,9.0,35,0.00,,,0.00,WeatherTracker,2013-02-14 23:26:00,
2013-02-14 17:31:00,68.4,38.9,30.01,West,280,1.0,5.0,34,0.00,,,0.00,WeatherTracker,2013-02-14 23:31:00,
2013-02-14 17:36:00,67.9,39.2,30.00,SE,143,0.0,4.0,35,0.00,,,0.00,WeatherTracker,2013-02-14 23:36:00,
2013-02-14 17:41:00,67.5,38.9,30.00,SSE,155,1.0,4.0,35,0.00,,,0.00,WeatherTracker,2013-02-14 23:41:00,
2013-02-14 17:46:00,67.1,39.2,30.00,West,266,1.0,4.0,36,0.00,,,0.00,WeatherTracker,2013-02-14 23:46:00,
2013-02-14 17:51:00,66.8,39.0,30.00,SSE,150,3.0,4.0,36,0.00,,,0.00,WeatherTracker,2013-02-14 23:51:00,
2013-02-14 17:56:00,66.7,38.9,30.00,SSE,155,0.0,4.0,36,0.00,,,0.00,WeatherTracker,2013-02-14 23:56:00,
2013-02-14 18:01:00,66.3,39.2,30.01,South,180,0.0,5.0,37,0.00,,,0.00,WeatherTracker,2013-02-15 00:01:00,
2013-02-14 18:06:00,65.8,39.5,30.01,SE,136,1.0,5.0,38,0.00,,,0.00,WeatherTracker,2013-02-15 00:06:00,
2013-02-14 18:11:00,65.2,38.9,30.01,SW,218,0.0,3.0,38,0.00,,,0.00,WeatherTracker,2013-02-15 00:11:00,
2013-02-14 18:16:00,64.7,39.2,30.01,ESE,108,1.0,3.0,39,0.00,,,0.00,WeatherTracker,2013-02-15 00:16:00,
2013-02-14 18:21:00,64.1,39.3,30.01,SSE,160,0.0,3.0,40,0.00,,,0.00,WeatherTracker,2013-02-15 00:21:00,
2013-02-14 18:26:00,63.5,39.4,30.02,ESE,111,0.0,3.0,41,0.00,,,0.00,WeatherTracker,2013-02-15 00:26:00,
2013-02-14 18:31:00,63.0,39.5,30.02,South,181,1.0,3.0,42,0.00,,,0.00,WeatherTracker,2013-02-15 00:31:00,
2013-02-14 18:36:00,62.6,39.2,30.02,SSE,159,0.0,3.0,42,0.00,,,0.00,WeatherTracker,2013-02-15 00:36:00,
2013-02-14 18:41:00,62.2,39.4,30.02,SE,129,0.0,4.0,43,0.00,,,0.00,WeatherTracker,2013-02-15 00:41:00,
2013-02-14 18:46:00,61.8,39.1,30.02,SSE,160,0.0,4.0,43,0.00,,,0.00,WeatherTracker,2013-02-15 00:46:00,
2013-02-14 18:51:00,61.6,39.5,30.01,SSW,193,0.0,4.0,44,0.00,,,0.00,WeatherTracker,2013-02-15 00:51:00,
2013-02-14 18:56:00,61.3,39.2,30.02,SSE,163,0.0,4.0,44,0.00,,,0.00,WeatherTracker,2013-02-15 00:56:00,
2013-02-14 19:01:00,60.9,39.4,30.01,SE,134,0.0,3.0,45,0.00,,,0.00,WeatherTracker,2013-02-15 01:01:00,
2013-02-14 19:06:00,60.5,39.1,30.01,East,89,0.0,2.0,45,0.00,,,0.00,WeatherTracker,2013-02-15 01:06:00,
2013-02-14 19:11:00,60.1,39.3,30.01,SE,138,0.0,2.0,46,0.00,,,0.00,WeatherTracker,2013-02-15 01:11:00,
2013-02-14 19:16:00,59.9,39.1,30.02,SE,132,0.0,4.0,46,0.00,,,0.00,WeatherTracker,2013-02-15 01:16:00,
2013-02-14 19:21:00,59.7,38.9,30.02,SSE,158,0.0,4.0,46,0.00,,,0.00,WeatherTracker,2013-02-15 01:21:00,
2013-02-14 19:26:00,59.5,38.7,30.02,SE,131,0.0,3.0,46,0.00,,,0.00,WeatherTracker,2013-02-15 01:26:00,
2013-02-14 19:31:00,59.2,39.0,30.02,SSE,162,0.0,3.0,47,0.00,,,0.00,WeatherTracker,2013-02-15 01:31:00,
2013-02-14 19:36:00,59.0,38.8,30.02,SSE,148,0.0,3.0,47,0.00,,,0.00,WeatherTracker,2013-02-15 01:36:00,
2013-02-14 19:41:00,58.8,38.6,30.02,SE,132,0.0,2.0,47,0.00,,,0.00,WeatherTracker,2013-02-15 01:41:00,
2013-02-14 19:46:00,58.5,38.9,30.02,SSE,157,0.0,2.0,48,0.00,,,0.00,WeatherTracker,2013-02-15 01:46:00,
2013-02-14 19:51:00,58.4,38.8,30.02,ESE,105,0.0,0.0,48,0.00,,,0.00,WeatherTracker,2013-02-15 01:51:00,
2013-02-14 19:56:00,58.2,38.6,30.01,ESE,109,0.0,1.0,48,0.00,,,0.00,WeatherTracker,2013-02-15 01:56:00,
2013-02-14 20:01:00,58.2,38.6,30.01,ESE,110,0.0,2.0,48,0.00,,,0.00,WeatherTracker,2013-02-15 02:01:00,
2013-02-14 20:06:00,58.1,38.5,30.01,ESE,110,0.0,2.0,48,0.00,,,0.00,WeatherTracker,2013-02-15 02:06:00,
2013-02-14 20:11:00,58.0,38.4,30.02,ESE,108,0.0,2.0,48,0.00,,,0.00,WeatherTracker,2013-02-15 02:11:00,
2013-02-14 20:16:00,57.9,38.3,30.02,ESE,114,0.0,2.0,48,0.00,,,0.00,WeatherTracker,2013-02-15 02:16:00,
2013-02-14 20:21:00,57.7,38.1,30.02,ESE,110,0.0,1.0,48,0.00,,,0.00,WeatherTracker,2013-02-15 02:21:00,
2013-02-14 20:26:00,57.6,38.1,30.02,ESE,116,0.0,1.0,48,0.00,,,0.00,WeatherTracker,2013-02-15 02:26:00,
2013-02-14 20:31:00,57.4,37.9,30.03,East,86,1.0,1.0,48,0.00,,,0.00,WeatherTracker,2013-02-15 02:31:00,
2013-02-14 20:36:00,57.2,38.2,30.03,ESE,109,0.0,1.0,49,0.00,,,0.00,WeatherTracker,2013-02-15 02:36:00,
2013-02-14 20:41:00,57.2,37.7,30.03,East,97,0.0,1.0,48,0.00,,,0.00,WeatherTracker,2013-02-15 02:41:00,
2013-02-14 20:46:00,57.0,38.0,30.03,East,83,0.0,1.0,49,0.00,,,0.00,WeatherTracker,2013-02-15 02:46:00,
2013-02-14 20:51:00,56.8,37.8,30.03,East,87,0.0,1.0,49,0.00,,,0.00,WeatherTracker,2013-02-15 02:51:00,
2013-02-14 20:56:00,56.8,37.8,30.03,East,100,0.0,1.0,49,0.00,,,0.00,WeatherTracker,2013-02-15 02:56:00,
2013-02-14 21:01:00,56.7,37.8,30.03,East,91,0.0,1.0,49,0.00,,,0.00,WeatherTracker,2013-02-15 03:01:00,
2013-02-14 21:06:00,56.6,37.7,30.03,East,79,0.0,1.0,49,0.00,,,0.00,WeatherTracker,2013-02-15 03:06:00,
2013-02-14 21:11:00,56.4,37.5,30.03,ENE,75,0.0,1.0,49,0.00,,,0.00,WeatherTracker,2013-02-15 03:11:00,
2013-02-14 21:16:00,56.1,37.2,30.03,East,90,0.0,1.0,49,0.00,,,0.00,WeatherTracker,2013-02-15 03:16:00,
2013-02-14 21:21:00,55.9,37.5,30.04,East,91,0.0,0.0,50,0.00,,,0.00,WeatherTracker,2013-02-15 03:21:00,
2013-02-14 21:26:00,55.8,37.4,30.04,SE,136,0.0,0.0,50,0.00,,,0.00,WeatherTracker,2013-02-15 03:26:00,
2013-02-14 21:31:00,55.8,37.9,30.04,ENE,73,0.0,1.0,51,0.00,,,0.00,WeatherTracker,2013-02-15 03:31:00,
2013-02-14 21:36:00,55.8,37.9,30.04,ESE,105,0.0,1.0,51,0.00,,,0.00,WeatherTracker,2013-02-15 03:36:00,
2013-02-14 21:41:00,56.0,38.6,30.05,SW,215,1.0,5.0,52,0.00,,,0.00,WeatherTracker,2013-02-15 03:41:00,
2013-02-14 21:46:00,56.1,38.7,30.05,SW,221,0.0,7.0,52,0.00,,,0.00,WeatherTracker,2013-02-15 03:46:00,
2013-02-14 21:51:00,56.1,39.2,30.05,SSE,159,0.0,7.0,53,0.00,,,0.00,WeatherTracker,2013-02-15 03:51:00,
2013-02-14 21:56:00,56.0,39.6,30.05,ESE,118,2.0,8.0,54,0.00,,,0.00,WeatherTracker,2013-02-15 03:56:00,
2013-02-14 22:01:00,55.8,39.9,30.05,ESE,105,2.0,8.0,55,0.00,,,0.00,WeatherTracker,2013-02-15 04:01:00,
2013-02-14 22:06:00,55.6,39.7,30.05,ESE,118,0.0,9.0,55,0.00,,,0.00,WeatherTracker,2013-02-15 04:06:00,
2013-02-14 22:11:00,55.3,39.9,30.05,SW,235,2.0,9.0,56,0.00,,,0.00,WeatherTracker,2013-02-15 04:11:00,
2013-02-14 22:16:00,55.0,40.0,30.06,West,268,0.0,4.0,57,0.00,,,0.00,WeatherTracker,2013-02-15 04:16:00,
2013-02-14 22:21:00,54.6,40.1,30.06,SSW,208,2.0,3.0,58,0.00,,,0.00,WeatherTracker,2013-02-15 04:21:00,
2013-02-14 22:26:00,54.1,40.1,30.05,SW,214,1.0,6.0,59,0.00,,,0.00,WeatherTracker,2013-02-15 04:26:00,
2013-02-14 22:32:00,53.8,39.8,30.05,South,176,0.0,4.0,59,0.00,,,0.00,WeatherTracker,2013-02-15 04:32:00,
2013-02-14 22:37:00,53.5,39.5,30.05,SSE,156,0.0,3.0,59,0.00,,,0.00,WeatherTracker,2013-02-15 04:37:00,
2013-02-14 22:42:00,53.1,39.6,30.05,SSE,167,0.0,2.0,60,0.00,,,0.00,WeatherTracker,2013-02-15 04:42:00,
2013-02-14 22:47:00,52.8,39.3,30.06,SSE,155,0.0,4.0,60,0.00,,,0.00,WeatherTracker,2013-02-15 04:47:00,
2013-02-14 22:52:00,52.5,39.4,30.06,SE,146,0.0,4.0,61,0.00,,,0.00,WeatherTracker,2013-02-15 04:52:00,
2013-02-14 22:57:00,52.1,39.1,30.06,SSE,148,0.0,2.0,61,0.00,,,0.00,WeatherTracker,2013-02-15 04:57:00,
2013-02-14 23:00:00,51.9,39.3,30.06,SSE,148,0.0,1.0,62,0.00,,,0.00,WeatherTracker,2013-02-15 05:00:00,
2013-02-14 23:05:00,51.4,38.8,30.06,SSE,148,0.0,0.0,62,0.00,,,0.00,WeatherTracker,2013-02-15 05:05:00,
2013-02-14 23:10:00,51.0,38.9,30.06,SSE,148,0.0,0.0,63,0.00,,,0.00,WeatherTracker,2013-02-15 05:10:00,
2013-02-14 23:15:00,50.6,38.5,30.06,SSE,148,0.0,0.0,63,0.00,,,0.00,WeatherTracker,2013-02-15 05:15:00,
2013-02-14 23:20:00,50.0,38.3,30.06,SSE,148,0.0,0.0,64,0.00,,,0.00,WeatherTracker,2013-02-15 05:20:00,
2013-02-14 23:25:00,49.5,38.6,30.06,SSE,148,0.0,0.0,66,0.00,,,0.00,WeatherTracker,2013-02-15 05:25:00,
2013-02-14 23:30:00,49.1,38.2,30.06,SE,138,0.0,1.0,66,0.00,,,0.00,WeatherTracker,2013-02-15 05:30:00,
2013-02-14 23:35:00,49.3,38.4,30.06,SE,145,0.0,2.0,66,0.00,,,0.00,WeatherTracker,2013-02-15 05:35:00,
2013-02-14 23:40:00,49.5,38.6,30.07,South,173,0.0,3.0,66,0.00,,,0.00,WeatherTracker,2013-02-15 05:40:00,
2013-02-14 23:45:00,49.6,38.7,30.07,South,173,0.0,3.0,66,0.00,,,0.00,WeatherTracker,2013-02-15 05:45:00,
2013-02-14 23:50:00,49.5,38.6,30.07,SE,140,0.0,0.0,66,0.00,,,0.00,WeatherTracker,2013-02-15 05:50:00,
2013-02-14 23:55:00,49.3,38.4,30.07,SE,140,0.0,0.0,66,0.00,,,0.00,WeatherTracker,2013-02-15 05:55:00,